PWSweather.com
Personal Weather Stations
Station Observations
BC052CD
On, Kemptville, ON K0G 1J0

OnKemptville, ON K0G 1J0

Lat: 45.0173179, Lon: -75.6329355

Elevation: 295

Station Type: National Geographic 265NC

http://kerrentweather.ca

High Low Average
Temperature 73.4°F23.0°C 52.0°F11.1°C 57.0°F13.9°C
Dew Point 73.5°F23.1°C 51.1°F10.6°C 56.3°F13.5°C
Winds 6.7 mph 10.8 kmh Calm Calm 2.0 mph W3.2 kmh W
Wind Gusts 15.1 mph24.3 kmh 3.9 mph6.3 kmh 7.0 mph11.3 kmh
Humidity 100% 88% 97%
Pressure 29.83 in1010.2 mb 29.52 in999.7 mb -
Precipitation 0.24 in6.1 mm - -
Hour Temp Dew Point Humidity Winds Wind Gusts Pressure Precip Precip Rate Daily Precip Total
12:00 AM 55.2°F12.9°C 51.4°F10.8°C 87% 2.0 mph W3.2 kmh W 13.4 mph21.6 kmh 29.85 in1010.8 mb 0.00 in0.0 mm 0.00 in0.0 mm 0.00 in0.0 mm
12:15 AM 55.2°F12.9°C 51.4°F10.8°C 87% 2.8 mph W4.5 kmh W 10.3 mph16.6 kmh 29.84 in1010.5 mb 0.00 in0.0 mm 0.00 in0.0 mm 0.00 in0.0 mm
12:30 AM 55.0°F12.8°C 51.6°F10.9°C 88% 0.8 mph W1.3 kmh W 10.3 mph16.6 kmh 29.84 in1010.5 mb 0.00 in0.0 mm 0.00 in0.0 mm 0.00 in0.0 mm
12:45 AM 54.9°F12.7°C 51.4°F10.8°C 88% 2.8 mph W4.5 kmh W 8.7 mph14.0 kmh 29.83 in1010.2 mb 0.00 in0.0 mm 0.00 in0.0 mm 0.00 in0.0 mm
01:00 AM 54.7°F12.6°C 51.2°F10.7°C 88% 3.9 mph W6.3 kmh W 12.3 mph19.8 kmh 29.83 in1010.2 mb 0.00 in0.0 mm 0.00 in0.0 mm 0.00 in0.0 mm
01:15 AM 54.5°F12.5°C 51.6°F10.9°C 90% 2.8 mph W4.5 kmh W 10.3 mph16.6 kmh 29.82 in1009.8 mb 0.00 in0.0 mm 0.00 in0.0 mm 0.00 in0.0 mm
01:30 AM 54.1°F12.3°C 51.3°F10.7°C 90% 2.0 mph W3.2 kmh W 11.5 mph18.5 kmh 29.81 in1009.5 mb 0.01 in0.3 mm 0.04 in1.0 mm 0.01 in0.3 mm
01:45 AM 54.0°F12.2°C 51.1°F10.6°C 90% 2.8 mph W4.5 kmh W 8.7 mph14.0 kmh 29.81 in1009.5 mb 0.03 in0.8 mm 0.08 in2.0 mm 0.03 in0.8 mm
02:00 AM 53.8°F12.1°C 51.2°F10.7°C 91% 3.9 mph W6.3 kmh W 9.5 mph15.3 kmh 29.79 in1008.8 mb 0.03 in0.8 mm 0.00 in0.0 mm 0.03 in0.8 mm
02:15 AM 53.6°F12.0°C 51.3°F10.7°C 92% 0.8 mph W1.3 kmh W 11.5 mph18.5 kmh 29.79 in1008.8 mb 0.03 in0.8 mm 0.00 in0.0 mm 0.03 in0.8 mm
02:30 AM 53.4°F11.9°C 51.2°F10.7°C 92% 2.0 mph W3.2 kmh W 11.5 mph18.5 kmh 29.77 in1008.1 mb 0.01 in0.3 mm 0.00 in0.0 mm 0.03 in0.8 mm
02:45 AM 53.2°F11.8°C 51.3°F10.7°C 93% 2.8 mph W4.5 kmh W 9.5 mph15.3 kmh 29.77 in1008.1 mb 0.00 in0.0 mm 0.00 in0.0 mm 0.03 in0.8 mm
03:00 AM 53.2°F11.8°C 51.3°F10.7°C 93% 3.9 mph W6.3 kmh W 8.7 mph14.0 kmh 29.77 in1008.1 mb 0.00 in0.0 mm 0.00 in0.0 mm 0.03 in0.8 mm
03:15 AM 53.1°F11.7°C 51.4°F10.8°C 94% 2.8 mph W4.5 kmh W 8.7 mph14.0 kmh 29.76 in1007.8 mb 0.00 in0.0 mm 0.00 in0.0 mm 0.03 in0.8 mm
03:30 AM 53.1°F11.7°C 51.4°F10.8°C 94% 2.0 mph W3.2 kmh W 9.5 mph15.3 kmh 29.75 in1007.5 mb 0.01 in0.3 mm 0.04 in1.0 mm 0.04 in1.0 mm
03:45 AM 52.9°F11.6°C 51.5°F10.8°C 95% 6.7 mph W10.8 kmh W 13.4 mph21.6 kmh 29.74 in1007.1 mb 0.04 in1.0 mm 0.12 in3.0 mm 0.07 in1.8 mm
04:00 AM 52.7°F11.5°C 51.3°F10.7°C 95% 2.8 mph W4.5 kmh W 7.5 mph12.1 kmh 29.74 in1007.1 mb 0.09 in2.3 mm 0.07 in1.8 mm 0.12 in3.0 mm
04:15 AM 52.5°F11.4°C 51.1°F10.6°C 95% 3.9 mph W6.3 kmh W 7.5 mph12.1 kmh 29.74 in1007.1 mb 0.11 in2.8 mm 0.08 in2.0 mm 0.13 in3.3 mm
04:30 AM 52.5°F11.4°C 51.4°F10.8°C 96% 2.8 mph W4.5 kmh W 8.7 mph14.0 kmh 29.72 in1006.4 mb 0.09 in2.3 mm 0.00 in0.0 mm 0.13 in3.3 mm
04:45 AM 52.3°F11.3°C 51.2°F10.7°C 96% 4.8 mph W7.7 kmh W 9.5 mph15.3 kmh 29.71 in1006.1 mb 0.09 in2.3 mm 0.00 in0.0 mm 0.16 in4.1 mm
05:00 AM 52.3°F11.3°C 51.5°F10.8°C 97% 3.9 mph W6.3 kmh W 7.5 mph12.1 kmh 29.71 in1006.1 mb 0.05 in1.3 mm 0.00 in0.0 mm 0.17 in4.3 mm
05:15 AM 52.2°F11.2°C 51.3°F10.7°C 97% 2.0 mph W3.2 kmh W 15.1 mph24.3 kmh 29.70 in1005.8 mb 0.05 in1.3 mm 0.00 in0.0 mm 0.19 in4.8 mm
05:30 AM 52.0°F11.1°C 51.2°F10.7°C 97% 2.0 mph W3.2 kmh W 7.5 mph12.1 kmh 29.70 in1005.8 mb 0.04 in1.0 mm 0.00 in0.0 mm 0.19 in4.8 mm
05:45 AM 52.0°F11.1°C 51.2°F10.7°C 97% 2.0 mph W3.2 kmh W 9.5 mph15.3 kmh 29.69 in1005.4 mb 0.04 in1.0 mm 0.00 in0.0 mm 0.20 in5.1 mm
06:00 AM 52.0°F11.1°C 51.4°F10.8°C 98% 0.8 mph W1.3 kmh W 6.7 mph10.8 kmh 29.69 in1005.4 mb 0.03 in0.8 mm 0.00 in0.0 mm 0.20 in5.1 mm
06:15 AM 52.0°F11.1°C 51.4°F10.8°C 98% 3.9 mph W6.3 kmh W 8.7 mph14.0 kmh 29.68 in1005.1 mb 0.01 in0.3 mm 0.00 in0.0 mm 0.20 in5.1 mm
06:30 AM 52.0°F11.1°C 51.4°F10.8°C 98% 3.9 mph W6.3 kmh W 8.7 mph14.0 kmh 29.68 in1005.1 mb 0.01 in0.3 mm 0.00 in0.0 mm 0.20 in5.1 mm
06:45 AM 52.2°F11.2°C 52.2°F11.2°C 100% 2.0 mph W3.2 kmh W 9.5 mph15.3 kmh 29.67 in1004.7 mb 0.00 in0.0 mm 0.00 in0.0 mm 0.20 in5.1 mm
07:00 AM 52.3°F11.3°C 52.3°F11.3°C 100% 2.0 mph W3.2 kmh W 5.6 mph9.0 kmh 29.67 in1004.7 mb 0.01 in0.3 mm 0.01 in0.3 mm 0.21 in5.3 mm
07:15 AM 52.5°F11.4°C 52.5°F11.4°C 100% 2.8 mph W4.5 kmh W 6.7 mph10.8 kmh 29.67 in1004.7 mb 0.01 in0.3 mm 0.00 in0.0 mm 0.21 in5.3 mm
07:30 AM 52.5°F11.4°C 52.5°F11.4°C 100% 2.0 mph W3.2 kmh W 6.7 mph10.8 kmh 29.67 in1004.7 mb 0.01 in0.3 mm 0.00 in0.0 mm 0.21 in5.3 mm
07:45 AM 52.7°F11.5°C 52.7°F11.5°C 100% 2.0 mph W3.2 kmh W 4.8 mph7.7 kmh 29.67 in1004.7 mb 0.01 in0.3 mm 0.00 in0.0 mm 0.21 in5.3 mm
08:00 AM 52.7°F11.5°C 52.7°F11.5°C 100% 0.8 mph W1.3 kmh W 6.7 mph10.8 kmh 29.67 in1004.7 mb 0.00 in0.0 mm 0.00 in0.0 mm 0.21 in5.3 mm
08:15 AM 52.7°F11.5°C 52.7°F11.5°C 100% 2.0 mph W3.2 kmh W 5.6 mph9.0 kmh 29.66 in1004.4 mb 0.01 in0.3 mm 0.04 in1.0 mm 0.22 in5.6 mm
08:30 AM 52.9°F11.6°C 52.9°F11.6°C 100% 2.0 mph W3.2 kmh W 7.5 mph12.1 kmh 29.66 in1004.4 mb 0.01 in0.3 mm 0.00 in0.0 mm 0.22 in5.6 mm
08:45 AM 52.9°F11.6°C 52.9°F11.6°C 100% 2.0 mph W3.2 kmh W 5.6 mph9.0 kmh 29.66 in1004.4 mb 0.01 in0.3 mm 0.00 in0.0 mm 0.22 in5.6 mm
09:00 AM 53.1°F11.7°C 53.1°F11.7°C 100% 2.0 mph W3.2 kmh W 6.7 mph10.8 kmh 29.65 in1004.1 mb 0.01 in0.3 mm 0.00 in0.0 mm 0.22 in5.6 mm
09:15 AM 53.4°F11.9°C 53.4°F11.9°C 100% 0.8 mph W1.3 kmh W 3.9 mph6.3 kmh 29.64 in1003.7 mb 0.00 in0.0 mm 0.00 in0.0 mm 0.22 in5.6 mm
09:30 AM 53.6°F12.0°C 53.6°F12.0°C 100% 0.8 mph W1.3 kmh W 4.8 mph7.7 kmh 29.65 in1004.1 mb 0.00 in0.0 mm 0.00 in0.0 mm 0.22 in5.6 mm
09:45 AM 53.8°F12.1°C 53.8°F12.1°C 100% 0.8 mph W1.3 kmh W 5.6 mph9.0 kmh 29.64 in1003.7 mb 0.00 in0.0 mm 0.00 in0.0 mm 0.22 in5.6 mm
10:00 AM 54.0°F12.2°C 54.0°F12.2°C 100% 2.0 mph W3.2 kmh W 5.6 mph9.0 kmh 29.65 in1004.1 mb 0.00 in0.0 mm 0.00 in0.0 mm 0.22 in5.6 mm
10:15 AM 54.1°F12.3°C 54.1°F12.3°C 100% 0.8 mph W1.3 kmh W 3.9 mph6.3 kmh 29.64 in1003.7 mb 0.00 in0.0 mm 0.00 in0.0 mm 0.22 in5.6 mm
10:30 AM 54.5°F12.5°C 54.5°F12.5°C 100% 0.8 mph W1.3 kmh W 4.8 mph7.7 kmh 29.64 in1003.7 mb 0.00 in0.0 mm 0.00 in0.0 mm 0.22 in5.6 mm
10:45 AM 54.7°F12.6°C 54.7°F12.6°C 100% 0.8 mph W1.3 kmh W 5.6 mph9.0 kmh 29.63 in1003.4 mb 0.00 in0.0 mm 0.00 in0.0 mm 0.22 in5.6 mm
11:00 AM 55.0°F12.8°C 55.0°F12.8°C 100% 0.8 mph W1.3 kmh W 5.6 mph9.0 kmh 29.63 in1003.4 mb 0.00 in0.0 mm 0.00 in0.0 mm 0.22 in5.6 mm
11:15 AM 55.2°F12.9°C 55.2°F12.9°C 100% 0.8 mph W1.3 kmh W 4.8 mph7.7 kmh 29.62 in1003.0 mb 0.00 in0.0 mm 0.00 in0.0 mm 0.22 in5.6 mm
11:30 AM 55.9°F13.3°C 56.0°F13.3°C 100% 0.8 mph W1.3 kmh W 4.8 mph7.7 kmh 29.61 in1002.7 mb 0.00 in0.0 mm 0.00 in0.0 mm 0.22 in5.6 mm
11:45 AM 56.3°F13.5°C 56.3°F13.5°C 100% Calm Calm 4.8 mph7.7 kmh 29.62 in1003.0 mb 0.00 in0.0 mm 0.00 in0.0 mm 0.22 in5.6 mm
12:00 PM 56.8°F13.8°C 56.9°F13.8°C 100% 2.0 mph W3.2 kmh W 5.6 mph9.0 kmh 29.61 in1002.7 mb 0.00 in0.0 mm 0.00 in0.0 mm 0.22 in5.6 mm
12:15 PM 57.0°F13.9°C 57.0°F13.9°C 100% 0.8 mph W1.3 kmh W 3.9 mph6.3 kmh 29.61 in1002.7 mb 0.00 in0.0 mm 0.00 in0.0 mm 0.22 in5.6 mm
12:30 PM 57.4°F14.1°C 57.4°F14.1°C 100% 0.8 mph W1.3 kmh W 4.8 mph7.7 kmh 29.61 in1002.7 mb 0.00 in0.0 mm 0.00 in0.0 mm 0.22 in5.6 mm
12:45 PM 57.6°F14.2°C 57.6°F14.2°C 100% 0.8 mph W1.3 kmh W 3.9 mph6.3 kmh 29.61 in1002.7 mb 0.00 in0.0 mm 0.00 in0.0 mm 0.22 in5.6 mm
01:00 PM 57.7°F14.3°C 57.8°F14.3°C 100% 0.8 mph W1.3 kmh W 3.9 mph6.3 kmh 29.60 in1002.4 mb 0.00 in0.0 mm 0.00 in0.0 mm 0.22 in5.6 mm
01:15 PM 58.1°F14.5°C 58.1°F14.5°C 100% 0.8 mph W1.3 kmh W 6.7 mph10.8 kmh 29.58 in1001.7 mb 0.00 in0.0 mm 0.00 in0.0 mm 0.22 in5.6 mm
01:30 PM 59.2°F15.1°C 59.2°F15.1°C 100% 2.0 mph W3.2 kmh W 5.6 mph9.0 kmh 29.57 in1001.4 mb 0.00 in0.0 mm 0.00 in0.0 mm 0.22 in5.6 mm
01:45 PM 60.6°F15.9°C 60.6°F15.9°C 100% 0.8 mph W1.3 kmh W 3.9 mph6.3 kmh 29.56 in1001.0 mb 0.00 in0.0 mm 0.00 in0.0 mm 0.22 in5.6 mm
02:00 PM 61.5°F16.4°C 61.5°F16.4°C 100% 2.0 mph W3.2 kmh W 4.8 mph7.7 kmh 29.56 in1001.0 mb 0.00 in0.0 mm 0.00 in0.0 mm 0.22 in5.6 mm
02:15 PM 62.2°F16.8°C 62.3°F16.8°C 100% 0.8 mph W1.3 kmh W 5.6 mph9.0 kmh 29.56 in1001.0 mb 0.00 in0.0 mm 0.00 in0.0 mm 0.22 in5.6 mm
02:30 PM 63.3°F17.4°C 63.3°F17.4°C 100% 2.0 mph W3.2 kmh W 5.6 mph9.0 kmh 29.55 in1000.7 mb 0.00 in0.0 mm 0.00 in0.0 mm 0.22 in5.6 mm
02:45 PM 64.6°F18.1°C 64.6°F18.1°C 100% 2.0 mph W3.2 kmh W 4.8 mph7.7 kmh 29.55 in1000.7 mb 0.00 in0.0 mm 0.00 in0.0 mm 0.22 in5.6 mm
03:00 PM 65.8°F18.8°C 65.9°F18.8°C 100% 2.8 mph W4.5 kmh W 6.7 mph10.8 kmh 29.54 in1000.3 mb 0.00 in0.0 mm 0.00 in0.0 mm 0.22 in5.6 mm
03:15 PM 68.0°F20.0°C 68.0°F20.0°C 100% 0.8 mph W1.3 kmh W 5.6 mph9.0 kmh 29.53 in1000.0 mb 0.00 in0.0 mm 0.00 in0.0 mm 0.22 in5.6 mm
03:30 PM 70.3°F21.3°C 70.4°F21.3°C 100% 0.8 mph W1.3 kmh W 5.6 mph9.0 kmh 29.53 in1000.0 mb 0.00 in0.0 mm 0.00 in0.0 mm 0.22 in5.6 mm
03:45 PM 72.1°F22.3°C 72.2°F22.3°C 100% 2.8 mph W4.5 kmh W 8.7 mph14.0 kmh 29.52 in999.7 mb 0.00 in0.0 mm 0.00 in0.0 mm 0.22 in5.6 mm
04:00 PM 73.0°F22.8°C 73.1°F22.8°C 100% 2.8 mph W4.5 kmh W 6.7 mph10.8 kmh 29.52 in999.7 mb 0.00 in0.0 mm 0.00 in0.0 mm 0.22 in5.6 mm
04:15 PM 73.4°F23.0°C 73.5°F23.1°C 100% 2.0 mph W3.2 kmh W 6.7 mph10.8 kmh 29.52 in999.7 mb 0.00 in0.0 mm 0.00 in0.0 mm 0.22 in5.6 mm
04:30 PM 72.7°F22.6°C 71.5°F21.9°C 96% 2.0 mph W3.2 kmh W 6.7 mph10.8 kmh 29.52 in999.7 mb 0.00 in0.0 mm 0.00 in0.0 mm 0.22 in5.6 mm
04:45 PM 69.8°F21.0°C 67.1°F19.5°C 91% 4.8 mph W7.7 kmh W 12.3 mph19.8 kmh 29.54 in1000.3 mb 0.01 in0.3 mm 0.04 in1.0 mm 0.24 in6.1 mm
05:00 PM 66.6°F19.2°C 62.9°F17.2°C 88% 2.8 mph W4.5 kmh W 6.7 mph10.8 kmh 29.54 in1000.3 mb 0.01 in0.3 mm 0.00 in0.0 mm 0.24 in6.1 mm
05:15 PM 64.9°F18.3°C 62.0°F16.7°C 90% 2.0 mph W3.2 kmh W 6.7 mph10.8 kmh 29.54 in1000.3 mb 0.01 in0.3 mm 0.00 in0.0 mm 0.24 in6.1 mm
05:30 PM 63.7°F17.6°C 61.0°F16.1°C 91% 0.8 mph W1.3 kmh W 5.6 mph9.0 kmh 29.54 in1000.3 mb 0.01 in0.3 mm 0.00 in0.0 mm 0.24 in6.1 mm
05:43 PM 62.8°F17.1°C 60.1°F15.6°C 91% 0.8 mph W1.3 kmh W 3.7 mph6.0 kmh 29.54 in1000.3 mb 0.00 in0.0 mm 0.00 in0.0 mm 0.24 in6.1 mm
05:48 PM 62.6°F17.0°C 59.9°F15.5°C 91% 2.0 mph W3.2 kmh W 3.9 mph6.3 kmh 29.53 in1000.0 mb 0.00 in0.0 mm 0.00 in0.0 mm 0.24 in6.1 mm
05:53 PM 62.2°F16.8°C 59.9°F15.5°C 92% 2.0 mph W3.2 kmh W 4.8 mph7.7 kmh 29.54 in1000.3 mb 0.00 in0.0 mm 0.00 in0.0 mm 0.24 in6.1 mm
05:58 PM 61.9°F16.6°C 59.5°F15.3°C 92% 2.8 mph W4.5 kmh W 5.6 mph9.0 kmh 29.55 in1000.7 mb 0.00 in0.0 mm 0.00 in0.0 mm 0.24 in6.1 mm
06:03 PM 61.7°F16.5°C 59.4°F15.2°C 92% 2.8 mph W4.5 kmh W 5.6 mph9.0 kmh 29.55 in1000.7 mb 0.00 in0.0 mm 0.00 in0.0 mm 0.24 in6.1 mm
06:08 PM 61.0°F16.1°C 58.6°F14.8°C 92% 2.8 mph W4.5 kmh W 9.5 mph15.3 kmh 29.56 in1001.0 mb 0.00 in0.0 mm 0.00 in0.0 mm 0.24 in6.1 mm
06:13 PM 61.2°F16.2°C 58.8°F14.9°C 92% 2.0 mph W3.2 kmh W 9.5 mph15.3 kmh 29.56 in1001.0 mb 0.00 in0.0 mm 0.00 in0.0 mm 0.24 in6.1 mm
06:18 PM 59.7°F15.4°C 57.7°F14.3°C 93% 2.8 mph W4.5 kmh W 9.5 mph15.3 kmh 29.56 in1001.0 mb 0.00 in0.0 mm 0.00 in0.0 mm 0.24 in6.1 mm
06:23 PM 59.5°F15.3°C 57.5°F14.2°C 93% 2.0 mph W3.2 kmh W 6.7 mph10.8 kmh 29.57 in1001.4 mb 0.00 in0.0 mm 0.00 in0.0 mm 0.24 in6.1 mm
06:28 PM 59.2°F15.1°C 57.5°F14.2°C 94% 3.9 mph W6.3 kmh W 6.7 mph10.8 kmh 29.57 in1001.4 mb 0.00 in0.0 mm 0.00 in0.0 mm 0.24 in6.1 mm
06:33 PM 58.8°F14.9°C 57.1°F13.9°C 94% 2.0 mph W3.2 kmh W 6.7 mph10.8 kmh 29.57 in1001.4 mb 0.00 in0.0 mm 0.00 in0.0 mm 0.24 in6.1 mm
06:38 PM 58.5°F14.7°C 56.7°F13.7°C 94% 2.0 mph W3.2 kmh W 6.7 mph10.8 kmh 29.58 in1001.7 mb 0.00 in0.0 mm 0.00 in0.0 mm 0.24 in6.1 mm
06:43 PM 58.1°F14.5°C 56.4°F13.6°C 94% Calm Calm 4.8 mph7.7 kmh 29.58 in1001.7 mb 0.00 in0.0 mm 0.00 in0.0 mm 0.24 in6.1 mm
06:48 PM 57.9°F14.4°C 56.8°F13.8°C 95% 2.0 mph W3.2 kmh W 5.6 mph9.0 kmh 29.58 in1001.7 mb 0.00 in0.0 mm 0.00 in0.0 mm 0.24 in6.1 mm
06:53 PM 57.7°F14.3°C 56.6°F13.7°C 95% Calm Calm 5.6 mph9.0 kmh 29.58 in1001.7 mb 0.00 in0.0 mm 0.00 in0.0 mm 0.24 in6.1 mm
06:58 PM 57.6°F14.2°C 56.4°F13.6°C 95% 0.8 mph W1.3 kmh W 5.6 mph9.0 kmh 29.59 in1002.0 mb 0.00 in0.0 mm 0.00 in0.0 mm 0.24 in6.1 mm
07:03 PM 57.4°F14.1°C 56.2°F13.4°C 95% 0.8 mph W1.3 kmh W 3.9 mph6.3 kmh 29.59 in1002.0 mb 0.00 in0.0 mm 0.00 in0.0 mm 0.24 in6.1 mm
07:08 PM 57.2°F14.0°C 56.4°F13.6°C 96% 0.8 mph W1.3 kmh W 3.9 mph6.3 kmh 29.59 in1002.0 mb 0.00 in0.0 mm 0.00 in0.0 mm 0.24 in6.1 mm
07:13 PM 57.0°F13.9°C 56.2°F13.4°C 96% 0.8 mph W1.3 kmh W 4.8 mph7.7 kmh 29.59 in1002.0 mb 0.00 in0.0 mm 0.00 in0.0 mm 0.24 in6.1 mm
07:18 PM 56.8°F13.8°C 56.0°F13.3°C 96% 0.8 mph W1.3 kmh W 4.8 mph7.7 kmh 29.59 in1002.0 mb 0.00 in0.0 mm 0.00 in0.0 mm 0.24 in6.1 mm
07:23 PM 56.8°F13.8°C 56.3°F13.5°C 97% Calm Calm 4.8 mph7.7 kmh 29.60 in1002.4 mb 0.00 in0.0 mm 0.00 in0.0 mm 0.24 in6.1 mm
07:28 PM 56.7°F13.7°C 56.1°F13.4°C 97% Calm Calm 4.8 mph7.7 kmh 29.60 in1002.4 mb 0.00 in0.0 mm 0.00 in0.0 mm 0.24 in6.1 mm
07:33 PM 56.7°F13.7°C 56.1°F13.4°C 97% 0.8 mph W1.3 kmh W 2.0 mph3.2 kmh 29.61 in1002.7 mb 0.00 in0.0 mm 0.00 in0.0 mm 0.24 in6.1 mm
07:38 PM 56.7°F13.7°C 56.1°F13.4°C 97% Calm Calm 2.0 mph3.2 kmh 29.60 in1002.4 mb 0.00 in0.0 mm 0.00 in0.0 mm 0.24 in6.1 mm
07:43 PM 56.7°F13.7°C 56.4°F13.6°C 98% Calm Calm 2.0 mph3.2 kmh 29.60 in1002.4 mb 0.00 in0.0 mm 0.00 in0.0 mm 0.24 in6.1 mm
07:48 PM 56.7°F13.7°C 56.4°F13.6°C 98% 0.8 mph W1.3 kmh W 2.0 mph3.2 kmh 29.60 in1002.4 mb 0.00 in0.0 mm 0.00 in0.0 mm 0.24 in6.1 mm
07:53 PM 56.7°F13.7°C 56.4°F13.6°C 98% 0.8 mph W1.3 kmh W 2.8 mph4.5 kmh 29.61 in1002.7 mb 0.00 in0.0 mm 0.00 in0.0 mm 0.24 in6.1 mm
07:58 PM 56.7°F13.7°C 56.4°F13.6°C 98% 2.0 mph W3.2 kmh W 4.8 mph7.7 kmh 29.61 in1002.7 mb 0.00 in0.0 mm 0.00 in0.0 mm 0.24 in6.1 mm
08:03 PM 56.5°F13.6°C 56.2°F13.4°C 98% 2.0 mph W3.2 kmh W 4.8 mph7.7 kmh 29.61 in1002.7 mb 0.00 in0.0 mm 0.00 in0.0 mm 0.24 in6.1 mm
08:08 PM 56.5°F13.6°C 56.5°F13.6°C 100% 2.0 mph W3.2 kmh W 4.8 mph7.7 kmh 29.61 in1002.7 mb 0.00 in0.0 mm 0.00 in0.0 mm 0.24 in6.1 mm
08:13 PM 56.3°F13.5°C 56.3°F13.5°C 100% Calm Calm 4.8 mph7.7 kmh 29.61 in1002.7 mb 0.00 in0.0 mm 0.00 in0.0 mm 0.24 in6.1 mm
08:18 PM 56.1°F13.4°C 56.1°F13.4°C 100% 2.0 mph W3.2 kmh W 4.8 mph7.7 kmh 29.61 in1002.7 mb 0.00 in0.0 mm 0.00 in0.0 mm 0.24 in6.1 mm
08:23 PM 55.9°F13.3°C 55.9°F13.3°C 100% 0.8 mph W1.3 kmh W 3.9 mph6.3 kmh 29.62 in1003.0 mb 0.00 in0.0 mm 0.00 in0.0 mm 0.24 in6.1 mm
08:28 PM 55.8°F13.2°C 55.8°F13.2°C 100% 0.8 mph W1.3 kmh W 3.9 mph6.3 kmh 29.62 in1003.0 mb 0.00 in0.0 mm 0.00 in0.0 mm 0.24 in6.1 mm
08:33 PM 55.8°F13.2°C 55.8°F13.2°C 100% Calm Calm 2.8 mph4.5 kmh 29.62 in1003.0 mb 0.00 in0.0 mm 0.00 in0.0 mm 0.24 in6.1 mm
08:38 PM 55.6°F13.1°C 55.6°F13.1°C 100% Calm Calm 2.8 mph4.5 kmh 29.62 in1003.0 mb 0.00 in0.0 mm 0.00 in0.0 mm 0.24 in6.1 mm
08:43 PM 55.4°F13.0°C 55.4°F13.0°C 100% 2.8 mph W4.5 kmh W 5.6 mph9.0 kmh 29.63 in1003.4 mb 0.00 in0.0 mm 0.00 in0.0 mm 0.24 in6.1 mm
08:48 PM 55.4°F13.0°C 55.4°F13.0°C 100% Calm Calm 5.6 mph9.0 kmh 29.63 in1003.4 mb 0.00 in0.0 mm 0.00 in0.0 mm 0.24 in6.1 mm
08:53 PM 55.4°F13.0°C 55.4°F13.0°C 100% 2.0 mph W3.2 kmh W 5.6 mph9.0 kmh 29.64 in1003.7 mb 0.00 in0.0 mm 0.00 in0.0 mm 0.24 in6.1 mm
08:58 PM 55.4°F13.0°C 55.4°F13.0°C 100% 2.0 mph W3.2 kmh W 4.8 mph7.7 kmh 29.63 in1003.4 mb 0.00 in0.0 mm 0.00 in0.0 mm 0.24 in6.1 mm
09:03 PM 55.4°F13.0°C 55.4°F13.0°C 100% 0.8 mph W1.3 kmh W 4.8 mph7.7 kmh 29.63 in1003.4 mb 0.00 in0.0 mm 0.00 in0.0 mm 0.24 in6.1 mm
09:08 PM 55.2°F12.9°C 55.2°F12.9°C 100% 0.8 mph W1.3 kmh W 3.9 mph6.3 kmh 29.64 in1003.7 mb 0.00 in0.0 mm 0.00 in0.0 mm 0.24 in6.1 mm
09:13 PM 55.0°F12.8°C 55.0°F12.8°C 100% 2.0 mph W3.2 kmh W 4.8 mph7.7 kmh 29.65 in1004.1 mb 0.00 in0.0 mm 0.00 in0.0 mm 0.24 in6.1 mm
09:18 PM 54.7°F12.6°C 54.7°F12.6°C 100% 2.0 mph W3.2 kmh W 4.8 mph7.7 kmh 29.64 in1003.7 mb 0.00 in0.0 mm 0.00 in0.0 mm 0.24 in6.1 mm
09:23 PM 54.3°F12.4°C 54.3°F12.4°C 100% 0.8 mph W1.3 kmh W 4.8 mph7.7 kmh 29.65 in1004.1 mb 0.00 in0.0 mm 0.00 in0.0 mm 0.24 in6.1 mm
09:28 PM 54.1°F12.3°C 54.1°F12.3°C 100% 2.0 mph W3.2 kmh W 4.8 mph7.7 kmh 29.65 in1004.1 mb 0.00 in0.0 mm 0.00 in0.0 mm 0.24 in6.1 mm
09:33 PM 54.0°F12.2°C 54.0°F12.2°C 100% 2.0 mph W3.2 kmh W 4.8 mph7.7 kmh 29.65 in1004.1 mb 0.00 in0.0 mm 0.00 in0.0 mm 0.24 in6.1 mm
09:38 PM 53.8°F12.1°C 53.8°F12.1°C 100% Calm Calm 4.8 mph7.7 kmh 29.65 in1004.1 mb 0.00 in0.0 mm 0.00 in0.0 mm 0.24 in6.1 mm
09:43 PM 53.8°F12.1°C 53.5°F11.9°C 98% 0.8 mph W1.3 kmh W 4.8 mph7.7 kmh 29.66 in1004.4 mb 0.00 in0.0 mm 0.00 in0.0 mm 0.24 in6.1 mm
09:48 PM 53.6°F12.0°C 53.3°F11.8°C 98% 4.8 mph W7.7 kmh W 10.3 mph16.6 kmh 29.65 in1004.1 mb 0.00 in0.0 mm 0.00 in0.0 mm 0.24 in6.1 mm
09:53 PM 53.6°F12.0°C 53.3°F11.8°C 98% 2.8 mph W4.5 kmh W 10.3 mph16.6 kmh 29.66 in1004.4 mb 0.00 in0.0 mm 0.00 in0.0 mm 0.24 in6.1 mm
09:58 PM 53.8°F12.1°C 53.2°F11.8°C 97% 0.8 mph W1.3 kmh W 10.3 mph16.6 kmh 29.66 in1004.4 mb 0.00 in0.0 mm 0.00 in0.0 mm 0.24 in6.1 mm
10:03 PM 54.0°F12.2°C 53.4°F11.9°C 97% 3.9 mph W6.3 kmh W 7.5 mph12.1 kmh 29.66 in1004.4 mb 0.00 in0.0 mm 0.00 in0.0 mm 0.24 in6.1 mm
10:08 PM 54.0°F12.2°C 52.8°F11.6°C 95% 3.9 mph W6.3 kmh W 7.5 mph12.1 kmh 29.66 in1004.4 mb 0.00 in0.0 mm 0.00 in0.0 mm 0.24 in6.1 mm
10:13 PM 54.0°F12.2°C 52.3°F11.3°C 94% 0.8 mph W1.3 kmh W 7.5 mph12.1 kmh 29.66 in1004.4 mb 0.00 in0.0 mm 0.00 in0.0 mm 0.24 in6.1 mm
10:18 PM 54.0°F12.2°C 52.0°F11.1°C 93% 2.8 mph W4.5 kmh W 6.7 mph10.8 kmh 29.66 in1004.4 mb 0.00 in0.0 mm 0.00 in0.0 mm 0.24 in6.1 mm
10:23 PM 53.8°F12.1°C 51.5°F10.8°C 92% Calm Calm 6.7 mph10.8 kmh 29.67 in1004.7 mb 0.00 in0.0 mm 0.00 in0.0 mm 0.24 in6.1 mm
10:28 PM 53.6°F12.0°C 51.0°F10.6°C 91% 0.8 mph W1.3 kmh W 6.7 mph10.8 kmh 29.67 in1004.7 mb 0.00 in0.0 mm 0.00 in0.0 mm 0.24 in6.1 mm
10:33 PM 53.6°F12.0°C 51.0°F10.6°C 91% 2.8 mph W4.5 kmh W 7.5 mph12.1 kmh 29.67 in1004.7 mb 0.00 in0.0 mm 0.00 in0.0 mm 0.24 in6.1 mm
10:38 PM 53.4°F11.9°C 50.6°F10.3°C 90% 2.8 mph W4.5 kmh W 7.5 mph12.1 kmh 29.67 in1004.7 mb 0.00 in0.0 mm 0.00 in0.0 mm 0.24 in6.1 mm
10:43 PM 53.6°F12.0°C 50.4°F10.2°C 88% 0.8 mph W1.3 kmh W 7.5 mph12.1 kmh 29.67 in1004.7 mb 0.00 in0.0 mm 0.00 in0.0 mm 0.24 in6.1 mm
10:48 PM 53.4°F11.9°C 50.0°F10.0°C 87% 2.8 mph W4.5 kmh W 6.7 mph10.8 kmh 29.67 in1004.7 mb 0.00 in0.0 mm 0.00 in0.0 mm 0.24 in6.1 mm
10:53 PM 53.4°F11.9°C 49.6°F9.8°C 86% 2.8 mph W4.5 kmh W 6.7 mph10.8 kmh 29.68 in1005.1 mb 0.00 in0.0 mm 0.00 in0.0 mm 0.24 in6.1 mm
10:58 PM 53.4°F11.9°C 49.3°F9.6°C 85% 3.9 mph W6.3 kmh W 6.7 mph10.8 kmh 29.68 in1005.1 mb 0.00 in0.0 mm 0.00 in0.0 mm 0.24 in6.1 mm
11:03 PM 53.6°F12.0°C 49.5°F9.7°C 85% 0.8 mph W1.3 kmh W 6.7 mph10.8 kmh 29.68 in1005.1 mb 0.00 in0.0 mm 0.00 in0.0 mm 0.24 in6.1 mm
11:08 PM 53.6°F12.0°C 48.9°F9.4°C 84% 0.8 mph W1.3 kmh W 6.7 mph10.8 kmh 29.68 in1005.1 mb 0.00 in0.0 mm 0.00 in0.0 mm 0.24 in6.1 mm
11:13 PM 53.6°F12.0°C 48.6°F9.2°C 83% 2.8 mph W4.5 kmh W 4.8 mph7.7 kmh 29.68 in1005.1 mb 0.00 in0.0 mm 0.00 in0.0 mm 0.24 in6.1 mm
11:18 PM 53.8°F12.1°C 48.4°F9.1°C 82% 2.0 mph W3.2 kmh W 4.8 mph7.7 kmh 29.69 in1005.4 mb 0.00 in0.0 mm 0.00 in0.0 mm 0.24 in6.1 mm
11:23 PM 53.8°F12.1°C 48.4°F9.1°C 82% 2.0 mph W3.2 kmh W 4.8 mph7.7 kmh 29.69 in1005.4 mb 0.00 in0.0 mm 0.00 in0.0 mm 0.24 in6.1 mm
11:28 PM 54.0°F12.2°C 48.3°F9.1°C 81% 2.0 mph W3.2 kmh W 4.8 mph7.7 kmh 29.69 in1005.4 mb 0.00 in0.0 mm 0.00 in0.0 mm 0.24 in6.1 mm
11:33 PM 54.0°F12.2°C 47.9°F8.8°C 79% 0.8 mph W1.3 kmh W 4.8 mph7.7 kmh 29.69 in1005.4 mb 0.00 in0.0 mm 0.00 in0.0 mm 0.24 in6.1 mm
11:38 PM 54.0°F12.2°C 47.9°F8.8°C 79% 2.8 mph W4.5 kmh W 5.6 mph9.0 kmh 29.69 in1005.4 mb 0.00 in0.0 mm 0.00 in0.0 mm 0.24 in6.1 mm
11:43 PM 54.1°F12.3°C 47.8°F8.8°C 78% 2.0 mph W3.2 kmh W 5.6 mph9.0 kmh 29.69 in1005.4 mb 0.00 in0.0 mm 0.00 in0.0 mm 0.24 in6.1 mm
11:48 PM 54.1°F12.3°C 47.4°F8.6°C 77% 4.8 mph W7.7 kmh W 8.7 mph14.0 kmh 29.69 in1005.4 mb 0.00 in0.0 mm 0.00 in0.0 mm 0.24 in6.1 mm
11:53 PM 54.1°F12.3°C 47.1°F8.4°C 76% 0.8 mph W1.3 kmh W 8.7 mph14.0 kmh 29.69 in1005.4 mb 0.00 in0.0 mm 0.00 in0.0 mm 0.24 in6.1 mm
11:58 PM 54.1°F12.3°C 46.4°F8.0°C 75% 2.0 mph W3.2 kmh W 8.7 mph14.0 kmh 29.69 in1005.4 mb 0.00 in0.0 mm 0.00 in0.0 mm 0.24 in6.1 mm